sensor_id;sensor_type;location;lat;lon;timestamp;pressure;altitude;pressure_sealevel;temperature;humidity
67740;BME280;54536;50.090;14.420;2024-02-26T00:00:00;98197.75;;;7.92;61.15
67740;BME280;54536;50.090;14.420;2024-02-26T00:02:26;98192.59;;;7.82;61.39
67740;BME280;54536;50.090;14.420;2024-02-26T00:04:52;98194.34;;;7.64;61.77
67740;BME280;54536;50.090;14.420;2024-02-26T00:07:18;98187.38;;;7.55;62.13
67740;BME280;54536;50.090;14.420;2024-02-26T00:09:44;98196.25;;;7.44;62.37
67740;BME280;54536;50.090;14.420;2024-02-26T00:12:10;98191.72;;;7.46;63.56
67740;BME280;54536;50.090;14.420;2024-02-26T00:14:36;98192.59;;;7.37;62.51
67740;BME280;54536;50.090;14.420;2024-02-26T00:17:02;98183.97;;;7.26;62.98
67740;BME280;54536;50.090;14.420;2024-02-26T00:19:28;98183.31;;;7.15;63.63
67740;BME280;54536;50.090;14.420;2024-02-26T00:21:54;98176.50;;;7.04;63.69
67740;BME280;54536;50.090;14.420;2024-02-26T00:24:21;98177.72;;;7.10;63.43
67740;BME280;54536;50.090;14.420;2024-02-26T00:26:47;98178.66;;;7.09;63.86
67740;BME280;54536;50.090;14.420;2024-02-26T00:29:19;98177.03;;;7.08;63.75
67740;BME280;54536;50.090;14.420;2024-02-26T00:31:45;98174.69;;;7.04;63.82
67740;BME280;54536;50.090;14.420;2024-02-26T00:34:11;98170.66;;;6.83;64.07
67740;BME280;54536;50.090;14.420;2024-02-26T00:36:37;98175.31;;;6.89;64.47
67740;BME280;54536;50.090;14.420;2024-02-26T00:39:06;98168.03;;;6.83;64.45
67740;BME280;54536;50.090;14.420;2024-02-26T00:41:32;98171.97;;;6.96;64.38
67740;BME280;54536;50.090;14.420;2024-02-26T00:43:59;98170.09;;;6.89;64.78
67740;BME280;54536;50.090;14.420;2024-02-26T00:46:25;98167.75;;;6.86;64.55
67740;BME280;54536;50.090;14.420;2024-02-26T00:48:51;98166.72;;;6.69;64.48
67740;BME280;54536;50.090;14.420;2024-02-26T00:51:17;98161.31;;;6.80;64.82
67740;BME280;54536;50.090;14.420;2024-02-26T00:53:44;98158.16;;;6.76;65.34
67740;BME280;54536;50.090;14.420;2024-02-26T00:56:10;98166.25;;;6.83;65.24
67740;BME280;54536;50.090;14.420;2024-02-26T00:58:36;98163.56;;;6.65;65.25
67740;BME280;54536;50.090;14.420;2024-02-26T01:01:02;98161.75;;;6.75;65.54
67740;BME280;54536;50.090;14.420;2024-02-26T01:03:28;98151.00;;;6.78;64.88
67740;BME280;54536;50.090;14.420;2024-02-26T01:05:54;98154.69;;;6.86;65.19
67740;BME280;54536;50.090;14.420;2024-02-26T01:08:20;98149.44;;;6.95;64.27
67740;BME280;54536;50.090;14.420;2024-02-26T01:10:46;98148.66;;;6.85;64.43
67740;BME280;54536;50.090;14.420;2024-02-26T01:13:13;98143.66;;;6.92;63.81
67740;BME280;54536;50.090;14.420;2024-02-26T01:15:38;98144.72;;;6.71;65.00
67740;BME280;54536;50.090;14.420;2024-02-26T01:18:04;98142.19;;;6.42;64.98
67740;BME280;54536;50.090;14.420;2024-02-26T01:20:30;98135.94;;;6.63;64.96
67740;BME280;54536;50.090;14.420;2024-02-26T01:22:56;98138.75;;;6.42;64.62
67740;BME280;54536;50.090;14.420;2024-02-26T01:25:22;98138.56;;;6.53;65.32
67740;BME280;54536;50.090;14.420;2024-02-26T01:27:48;98133.94;;;6.37;64.63
67740;BME280;54536;50.090;14.420;2024-02-26T01:30:14;98134.09;;;6.36;65.59
67740;BME280;54536;50.090;14.420;2024-02-26T01:32:42;98127.06;;;6.36;65.73
67740;BME280;54536;50.090;14.420;2024-02-26T01:35:08;98126.13;;;6.27;64.81
67740;BME280;54536;50.090;14.420;2024-02-26T01:37:37;98125.47;;;6.16;65.48
67740;BME280;54536;50.090;14.420;2024-02-26T01:40:03;98128.59;;;6.39;65.00
67740;BME280;54536;50.090;14.420;2024-02-26T01:42:30;98123.38;;;6.29;64.54
67740;BME280;54536;50.090;14.420;2024-02-26T01:44:58;98124.66;;;6.05;65.44
67740;BME280;54536;50.090;14.420;2024-02-26T01:47:26;98118.91;;;6.12;65.77
67740;BME280;54536;50.090;14.420;2024-02-26T01:49:53;98115.41;;;6.21;64.87
67740;BME280;54536;50.090;14.420;2024-02-26T01:52:21;98113.09;;;6.18;64.53
67740;BME280;54536;50.090;14.420;2024-02-26T01:54:48;98109.00;;;6.15;64.14
67740;BME280;54536;50.090;14.420;2024-02-26T01:57:16;98107.31;;;6.14;64.74
67740;BME280;54536;50.090;14.420;2024-02-26T01:59:42;98107.75;;;6.19;64.23
67740;BME280;54536;50.090;14.420;2024-02-26T02:02:11;98101.81;;;6.27;64.90
67740;BME280;54536;50.090;14.420;2024-02-26T02:04:39;98101.16;;;6.25;64.46
67740;BME280;54536;50.090;14.420;2024-02-26T02:07:06;98102.53;;;6.19;64.21
67740;BME280;54536;50.090;14.420;2024-02-26T02:09:32;98105.94;;;6.20;64.47
67740;BME280;54536;50.090;14.420;2024-02-26T02:11:59;98111.88;;;6.22;64.40
67740;BME280;54536;50.090;14.420;2024-02-26T02:14:25;98104.44;;;6.07;64.67
67740;BME280;54536;50.090;14.420;2024-02-26T02:16:51;98102.25;;;6.22;63.81
67740;BME280;54536;50.090;14.420;2024-02-26T02:19:17;98103.88;;;6.23;64.39
67740;BME280;54536;50.090;14.420;2024-02-26T02:21:43;98107.75;;;6.19;64.29
67740;BME280;54536;50.090;14.420;2024-02-26T02:24:09;98102.66;;;6.18;64.00
67740;BME280;54536;50.090;14.420;2024-02-26T02:26:35;98100.88;;;6.18;64.17
67740;BME280;54536;50.090;14.420;2024-02-26T02:29:02;98100.88;;;6.18;64.36
67740;BME280;54536;50.090;14.420;2024-02-26T02:31:28;98102.94;;;6.15;64.75
67740;BME280;54536;50.090;14.420;2024-02-26T02:33:54;98101.16;;;6.25;64.22
67740;BME280;54536;50.090;14.420;2024-02-26T02:36:20;98104.44;;;6.17;63.33
67740;BME280;54536;50.090;14.420;2024-02-26T02:38:50;98102.25;;;6.13;64.24
67740;BME280;54536;50.090;14.420;2024-02-26T02:41:17;98095.06;;;6.24;63.38
67740;BME280;54536;50.090;14.420;2024-02-26T02:43:44;98094.69;;;6.19;64.13
67740;BME280;54536;50.090;14.420;2024-02-26T02:46:10;98087.25;;;6.24;63.32
67740;BME280;54536;50.090;14.420;2024-02-26T02:48:41;98091.25;;;6.28;64.47
67740;BME280;54536;50.090;14.420;2024-02-26T02:51:09;98094.66;;;6.29;64.06
67740;BME280;54536;50.090;14.420;2024-02-26T02:53:35;98091.00;;;6.22;64.36
67740;BME280;54536;50.090;14.420;2024-02-26T02:56:01;98094.44;;;6.03;64.79
67740;BME280;54536;50.090;14.420;2024-02-26T02:58:27;98097.19;;;6.01;65.11
67740;BME280;54536;50.090;14.420;2024-02-26T03:00:53;98101.47;;;5.93;65.67
67740;BME280;54536;50.090;14.420;2024-02-26T03:03:20;98101.03;;;6.07;65.76
67740;BME280;54536;50.090;14.420;2024-02-26T03:05:50;98099.13;;;5.99;65.47
67740;BME280;54536;50.090;14.420;2024-02-26T03:08:15;98097.44;;;6.18;65.72
67740;BME280;54536;50.090;14.420;2024-02-26T03:10:42;98092.50;;;6.15;65.34
67740;BME280;54536;50.090;14.420;2024-02-26T03:13:09;98094.97;;;6.16;66.23
67740;BME280;54536;50.090;14.420;2024-02-26T03:15:35;98099.41;;;5.96;65.54
67740;BME280;54536;50.090;14.420;2024-02-26T03:18:01;98095.16;;;5.95;65.52
67740;BME280;54536;50.090;14.420;2024-02-26T03:20:27;98103.66;;;5.97;66.13
67740;BME280;54536;50.090;14.420;2024-02-26T03:22:53;98096.50;;;5.99;66.02
67740;BME280;54536;50.090;14.420;2024-02-26T03:25:19;98098.97;;;6.01;66.01
67740;BME280;54536;50.090;14.420;2024-02-26T03:27:44;98101.31;;;6.04;65.89
67740;BME280;54536;50.090;14.420;2024-02-26T03:30:11;98106.25;;;6.07;64.95
67740;BME280;54536;50.090;14.420;2024-02-26T03:32:37;98104.19;;;6.10;64.25
67740;BME280;54536;50.090;14.420;2024-02-26T03:35:03;98104.44;;;6.07;64.65
67740;BME280;54536;50.090;14.420;2024-02-26T03:37:30;98106.94;;;6.09;63.67
67740;BME280;54536;50.090;14.420;2024-02-26T03:39:56;98110.78;;;5.85;64.10
67740;BME280;54536;50.090;14.420;2024-02-26T03:42:23;98112.28;;;5.69;65.72
67740;BME280;54536;50.090;14.420;2024-02-26T03:44:50;98111.44;;;5.87;65.36
67740;BME280;54536;50.090;14.420;2024-02-26T03:47:16;98103.66;;;5.97;64.35
67740;BME280;54536;50.090;14.420;2024-02-26T03:49:42;98112.16;;;5.90;64.50
67740;BME280;54536;50.090;14.420;2024-02-26T03:52:08;98113.25;;;5.97;64.99
67740;BME280;54536;50.090;14.420;2024-02-26T03:54:34;98110.91;;;5.84;65.04
67740;BME280;54536;50.090;14.420;2024-02-26T03:56:59;98113.94;;;5.79;64.27
67740;BME280;54536;50.090;14.420;2024-02-26T03:59:26;98106.78;;;5.62;64.90
67740;BME280;54536;50.090;14.420;2024-02-26T04:01:52;98107.75;;;5.80;65.08
67740;BME280;54536;50.090;14.420;2024-02-26T04:04:19;98113.94;;;5.70;64.59
67740;BME280;54536;50.090;14.420;2024-02-26T04:06:45;98109.66;;;5.69;64.25
67740;BME280;54536;50.090;14.420;2024-02-26T04:09:14;98120.09;;;5.88;64.40
67740;BME280;54536;50.090;14.420;2024-02-26T04:11:40;98113.66;;;5.82;64.95
67740;BME280;54536;50.090;14.420;2024-02-26T04:14:07;98110.91;;;5.74;65.28
67740;BME280;54536;50.090;14.420;2024-02-26T04:16:37;98114.34;;;5.75;64.26
67740;BME280;54536;50.090;14.420;2024-02-26T04:19:03;98113.66;;;5.63;65.33
67740;BME280;54536;50.090;14.420;2024-02-26T04:21:29;98127.91;;;5.59;65.07
67740;BME280;54536;50.090;14.420;2024-02-26T04:23:55;98117.09;;;5.63;65.47
67740;BME280;54536;50.090;14.420;2024-02-26T04:26:21;98121.88;;;5.58;65.69
67740;BME280;54536;50.090;14.420;2024-02-26T04:28:47;98115.84;;;5.58;65.70
67740;BME280;54536;50.090;14.420;2024-02-26T04:31:13;98119.13;;;5.40;66.07
67740;BME280;54536;50.090;14.420;2024-02-26T04:33:39;98121.47;;;5.63;65.80
67740;BME280;54536;50.090;14.420;2024-02-26T04:36:05;98122.84;;;5.57;65.72
67740;BME280;54536;50.090;14.420;2024-02-26T04:38:31;98130.50;;;5.59;66.20
67740;BME280;54536;50.090;14.420;2024-02-26T04:40:57;98124.50;;;5.78;66.06
67740;BME280;54536;50.090;14.420;2024-02-26T04:43:23;98121.34;;;5.74;65.23
67740;BME280;54536;50.090;14.420;2024-02-26T04:45:49;98120.66;;;5.72;65.75
67740;BME280;54536;50.090;14.420;2024-02-26T04:48:16;98123.81;;;5.56;66.12
67740;BME280;54536;50.090;14.420;2024-02-26T04:50:42;98118.47;;;5.68;65.57
67740;BME280;54536;50.090;14.420;2024-02-26T04:53:08;98119.97;;;5.60;65.76
67740;BME280;54536;50.090;14.420;2024-02-26T04:55:34;98112.81;;;5.82;65.97
67740;BME280;54536;50.090;14.420;2024-02-26T04:58:00;98110.25;;;5.72;64.33
67740;BME280;54536;50.090;14.420;2024-02-26T05:00:25;98125.31;;;5.88;64.12
67740;BME280;54536;50.090;14.420;2024-02-26T05:02:52;98120.25;;;5.77;64.09
67740;BME280;54536;50.090;14.420;2024-02-26T05:05:18;98126.00;;;5.71;64.62
67740;BME280;54536;50.090;14.420;2024-02-26T05:07:45;98126.28;;;5.58;64.84
67740;BME280;54536;50.090;14.420;2024-02-26T05:10:10;98122.16;;;5.75;64.52
67740;BME280;54536;50.090;14.420;2024-02-26T05:12:37;98128.50;;;5.72;64.94
67740;BME280;54536;50.090;14.420;2024-02-26T05:15:03;98136.59;;;5.79;64.63
67740;BME280;54536;50.090;14.420;2024-02-26T05:17:29;98125.75;;;5.74;64.77
67740;BME280;54536;50.090;14.420;2024-02-26T05:19:55;98131.38;;;5.79;64.92
67740;BME280;54536;50.090;14.420;2024-02-26T05:22:21;98139.03;;;5.61;65.07
67740;BME280;54536;50.090;14.420;2024-02-26T05:24:47;98136.44;;;5.80;65.55
67740;BME280;54536;50.090;14.420;2024-02-26T05:27:13;98136.84;;;5.66;65.22
67740;BME280;54536;50.090;14.420;2024-02-26T05:29:39;98147.69;;;5.71;65.37
67740;BME280;54536;50.090;14.420;2024-02-26T05:32:06;98147.97;;;5.68;64.97
67740;BME280;54536;50.090;14.420;2024-02-26T05:34:32;98140.84;;;5.80;65.64
67740;BME280;54536;50.090;14.420;2024-02-26T05:36:59;98143.72;;;5.86;64.87
67740;BME280;54536;50.090;14.420;2024-02-26T05:39:25;98141.81;;;5.69;65.48
67740;BME280;54536;50.090;14.420;2024-02-26T05:41:51;98140.94;;;5.59;66.00
67740;BME280;54536;50.090;14.420;2024-02-26T05:44:17;98150.72;;;5.76;65.60
67740;BME280;54536;50.090;14.420;2024-02-26T05:46:43;98152.22;;;5.59;65.92
67740;BME280;54536;50.090;14.420;2024-02-26T05:49:09;98151.53;;;5.67;66.31
67740;BME280;54536;50.090;14.420;2024-02-26T05:51:35;98154.94;;;5.58;66.83
67740;BME280;54536;50.090;14.420;2024-02-26T05:54:01;98155.09;;;5.56;66.32
67740;BME280;54536;50.090;14.420;2024-02-26T05:56:27;98158.41;;;5.68;66.77
67740;BME280;54536;50.090;14.420;2024-02-26T05:58:53;98158.00;;;5.73;66.54
67740;BME280;54536;50.090;14.420;2024-02-26T06:01:20;98155.50;;;5.71;66.16
67740;BME280;54536;50.090;14.420;2024-02-26T06:03:46;98165.28;;;5.79;66.25
67740;BME280;54536;50.090;14.420;2024-02-26T06:06:12;98165.13;;;5.71;66.87
67740;BME280;54536;50.090;14.420;2024-02-26T06:08:40;98166.91;;;5.80;66.75
67740;BME280;54536;50.090;14.420;2024-02-26T06:11:07;98172.81;;;5.82;66.14
67740;BME280;54536;50.090;14.420;2024-02-26T06:13:34;98178.44;;;5.68;66.89
67740;BME280;54536;50.090;14.420;2024-02-26T06:16:00;98176.53;;;5.79;66.93
67740;BME280;54536;50.090;14.420;2024-02-26T06:18:26;98174.47;;;5.73;67.08
67740;BME280;54536;50.090;14.420;2024-02-26T06:20:52;98187.78;;;5.80;67.70
67740;BME280;54536;50.090;14.420;2024-02-26T06:23:18;98182.16;;;5.84;66.47
67740;BME280;54536;50.090;14.420;2024-02-26T06:25:44;98188.59;;;5.80;66.67
67740;BME280;54536;50.090;14.420;2024-02-26T06:28:11;98188.16;;;5.66;67.28
67740;BME280;54536;50.090;14.420;2024-02-26T06:30:37;98188.06;;;5.86;67.52
67740;BME280;54536;50.090;14.420;2024-02-26T06:33:03;98191.91;;;5.82;66.96
67740;BME280;54536;50.090;14.420;2024-02-26T06:35:30;98190.84;;;5.95;66.75
67740;BME280;54536;50.090;14.420;2024-02-26T06:37:56;98203.06;;;5.94;66.87
67740;BME280;54536;50.090;14.420;2024-02-26T06:40:22;98193.34;;;6.06;65.92
67740;BME280;54536;50.090;14.420;2024-02-26T06:42:48;98204.84;;;6.13;65.91
67740;BME280;54536;50.090;14.420;2024-02-26T06:45:16;98203.06;;;6.04;65.84
67740;BME280;54536;50.090;14.420;2024-02-26T06:47:42;98211.59;;;6.06;66.40
67740;BME280;54536;50.090;14.420;2024-02-26T06:50:11;98207.91;;;6.18;66.23
67740;BME280;54536;50.090;14.420;2024-02-26T06:52:37;98213.78;;;6.10;65.83
67740;BME280;54536;50.090;14.420;2024-02-26T06:55:03;98216.81;;;5.96;66.14
67740;BME280;54536;50.090;14.420;2024-02-26T06:57:30;98213.94;;;5.99;66.64
67740;BME280;54536;50.090;14.420;2024-02-26T06:59:57;98218.59;;;6.15;66.12
67740;BME280;54536;50.090;14.420;2024-02-26T07:02:24;98215.03;;;6.06;66.66
67740;BME280;54536;50.090;14.420;2024-02-26T07:04:51;98214.31;;;6.14;65.80
67740;BME280;54536;50.090;14.420;2024-02-26T07:07:17;98219.28;;;6.07;66.13
67740;BME280;54536;50.090;14.420;2024-02-26T07:09:44;98219.44;;;6.16;66.23
67740;BME280;54536;50.090;14.420;2024-02-26T07:12:10;98216.94;;;6.14;66.49
67740;BME280;54536;50.090;14.420;2024-02-26T07:14:36;98223.56;;;6.18;66.22
67740;BME280;54536;50.090;14.420;2024-02-26T07:17:03;98225.47;;;6.16;65.91
67740;BME280;54536;50.090;14.420;2024-02-26T07:19:29;98223.13;;;6.13;66.00
67740;BME280;54536;50.090;14.420;2024-02-26T07:21:55;98217.47;;;6.08;65.94
67740;BME280;54536;50.090;14.420;2024-02-26T07:24:21;98210.50;;;6.18;66.28
67740;BME280;54536;50.090;14.420;2024-02-26T07:26:47;98226.16;;;6.08;66.15
67740;BME280;54536;50.090;14.420;2024-02-26T07:29:13;98213.22;;;6.07;66.03
67740;BME280;54536;50.090;14.420;2024-02-26T07:31:39;98220.09;;;5.98;66.41
67740;BME280;54536;50.090;14.420;2024-02-26T07:34:05;98221.56;;;5.81;67.13
67740;BME280;54536;50.090;14.420;2024-02-26T07:36:31;98222.41;;;6.01;67.17
67740;BME280;54536;50.090;14.420;2024-02-26T07:38:57;98214.47;;;5.93;67.01
67740;BME280;54536;50.090;14.420;2024-02-26T07:41:23;98219.25;;;5.98;66.24
67740;BME280;54536;50.090;14.420;2024-02-26T07:43:49;98219.53;;;6.04;66.48
67740;BME280;54536;50.090;14.420;2024-02-26T07:46:15;98219.81;;;6.01;66.72
67740;BME280;54536;50.090;14.420;2024-02-26T07:48:41;98223.41;;;6.20;67.05
67740;BME280;54536;50.090;14.420;2024-02-26T07:51:07;98223.56;;;6.38;66.73
67740;BME280;54536;50.090;14.420;2024-02-26T07:53:34;98222.44;;;6.30;65.81
67740;BME280;54536;50.090;14.420;2024-02-26T07:55:59;98222.84;;;6.36;67.19
67740;BME280;54536;50.090;14.420;2024-02-26T07:58:26;98219.00;;;6.01;66.64
67740;BME280;54536;50.090;14.420;2024-02-26T08:00:52;98213.09;;;6.38;66.38
67740;BME280;54536;50.090;14.420;2024-02-26T08:03:18;98227.91;;;6.37;66.13
67740;BME280;54536;50.090;14.420;2024-02-26T08:05:43;98232.19;;;6.38;66.97
67740;BME280;54536;50.090;14.420;2024-02-26T08:08:10;98234.38;;;6.52;66.11
67740;BME280;54536;50.090;14.420;2024-02-26T08:10:35;98239.16;;;6.57;66.00
67740;BME280;54536;50.090;14.420;2024-02-26T08:13:02;98236.00;;;6.63;65.37
67740;BME280;54536;50.090;14.420;2024-02-26T08:15:31;98238.88;;;6.70;65.48
67740;BME280;54536;50.090;14.420;2024-02-26T08:17:58;98238.75;;;6.81;66.61
67740;BME280;54536;50.090;14.420;2024-02-26T08:20:24;98233.91;;;6.76;65.40
67740;BME280;54536;50.090;14.420;2024-02-26T08:22:50;98233.25;;;6.74;65.37
67740;BME280;54536;50.090;14.420;2024-02-26T08:25:16;98235.16;;;6.72;65.36
67740;BME280;54536;50.090;14.420;2024-02-26T08:27:44;98236.66;;;6.85;65.09
67740;BME280;54536;50.090;14.420;2024-02-26T08:30:10;98241.38;;;6.71;65.47
67740;BME280;54536;50.090;14.420;2024-02-26T08:32:39;98241.34;;;6.81;65.20
67740;BME280;54536;50.090;14.420;2024-02-26T08:35:05;98241.91;;;6.75;65.95
67740;BME280;54536;50.090;14.420;2024-02-26T08:37:31;98240.34;;;6.92;65.24
67740;BME280;54536;50.090;14.420;2024-02-26T08:39:57;98243.72;;;7.12;64.79
67740;BME280;54536;50.090;14.420;2024-02-26T08:42:24;98239.28;;;7.22;64.57
67740;BME280;54536;50.090;14.420;2024-02-26T08:44:50;98247.56;;;7.17;64.73
67740;BME280;54536;50.090;14.420;2024-02-26T08:47:16;98242.91;;;7.11;64.28
67740;BME280;54536;50.090;14.420;2024-02-26T08:49:45;98241.38;;;7.18;65.05
67740;BME280;54536;50.090;14.420;2024-02-26T08:52:12;98238.25;;;7.05;64.98
67740;BME280;54536;50.090;14.420;2024-02-26T08:54:39;98233.53;;;7.18;64.69
67740;BME280;54536;50.090;14.420;2024-02-26T08:57:06;98232.13;;;7.24;64.81
67740;BME280;54536;50.090;14.420;2024-02-26T08:59:32;98228.16;;;7.20;65.06
67740;BME280;54536;50.090;14.420;2024-02-26T09:01:58;98237.66;;;7.21;65.11
67740;BME280;54536;50.090;14.420;2024-02-26T09:04:24;98241.44;;;7.36;64.72
67740;BME280;54536;50.090;14.420;2024-02-26T09:06:50;98238.56;;;7.39;64.64
67740;BME280;54536;50.090;14.420;2024-02-26T09:09:16;98247.75;;;7.43;64.51
67740;BME280;54536;50.090;14.420;2024-02-26T09:11:42;98254.53;;;7.36;64.66
67740;BME280;54536;50.090;14.420;2024-02-26T09:14:08;98257.19;;;7.26;65.08
67740;BME280;54536;50.090;14.420;2024-02-26T09:16:34;98253.88;;;7.24;65.23
67740;BME280;54536;50.090;14.420;2024-02-26T09:19:01;98254.47;;;7.46;64.90
67740;BME280;54536;50.090;14.420;2024-02-26T09:21:28;98260.28;;;7.40;64.99
67740;BME280;54536;50.090;14.420;2024-02-26T09:23:54;98248.72;;;7.42;64.90
67740;BME280;54536;50.090;14.420;2024-02-26T09:26:20;98251.78;;;7.28;65.34
67740;BME280;54536;50.090;14.420;2024-02-26T09:28:46;98255.75;;;7.32;65.26
67740;BME280;54536;50.090;14.420;2024-02-26T09:31:13;98256.13;;;7.47;65.27
67740;BME280;54536;50.090;14.420;2024-02-26T09:33:41;98256.81;;;7.49;65.17
67740;BME280;54536;50.090;14.420;2024-02-26T09:36:07;98251.88;;;7.46;65.00
67740;BME280;54536;50.090;14.420;2024-02-26T09:38:34;98256.91;;;7.57;64.65
67740;BME280;54536;50.090;14.420;2024-02-26T09:41:07;98254.81;;;7.61;64.85
67740;BME280;54536;50.090;14.420;2024-02-26T09:43:44;98255.69;;;7.79;64.31
67740;BME280;54536;50.090;14.420;2024-02-26T09:46:12;98261.78;;;7.70;64.49
67740;BME280;54536;50.090;14.420;2024-02-26T09:48:40;98255.41;;;7.82;64.28
67740;BME280;54536;50.090;14.420;2024-02-26T09:51:10;98260.41;;;7.76;64.65
67740;BME280;54536;50.090;14.420;2024-02-26T09:53:39;98254.75;;;7.98;63.79
67740;BME280;54536;50.090;14.420;2024-02-26T09:56:09;98254.91;;;8.14;63.46
67740;BME280;54536;50.090;14.420;2024-02-26T09:58:39;98248.59;;;8.07;63.66
67740;BME280;54536;50.090;14.420;2024-02-26T10:01:11;98253.19;;;8.23;63.38
67740;BME280;54536;50.090;14.420;2024-02-26T10:03:41;98252.59;;;8.29;63.02
67740;BME280;54536;50.090;14.420;2024-02-26T10:06:11;98244.38;;;8.42;62.28
67740;BME280;54536;50.090;14.420;2024-02-26T10:08:37;98243.03;;;8.38;62.83
67740;BME280;54536;50.090;14.420;2024-02-26T10:11:06;98238.97;;;8.43;62.60
67740;BME280;54536;50.090;14.420;2024-02-26T10:13:35;98243.31;;;8.35;62.82
67740;BME280;54536;50.090;14.420;2024-02-26T10:16:03;98246.59;;;8.37;62.84
67740;BME280;54536;50.090;14.420;2024-02-26T10:18:51;98250.88;;;8.56;62.73
67740;BME280;54536;50.090;14.420;2024-02-26T10:21:20;98255.72;;;8.68;61.99
67740;BME280;54536;50.090;14.420;2024-02-26T10:23:46;98258.94;;;8.62;62.67
67740;BME280;54536;50.090;14.420;2024-02-26T10:26:17;98272.56;;;8.66;62.40
67740;BME280;54536;50.090;14.420;2024-02-26T10:28:44;98263.03;;;8.57;62.94
67740;BME280;54536;50.090;14.420;2024-02-26T10:31:11;98261.34;;;8.56;62.97
67740;BME280;54536;50.090;14.420;2024-02-26T10:33:38;98260.22;;;8.58;63.35
67740;BME280;54536;50.090;14.420;2024-02-26T10:36:06;98264.88;;;8.64;63.29
67740;BME280;54536;50.090;14.420;2024-02-26T10:38:35;98270.38;;;9.05;65.12
67740;BME280;54536;50.090;14.420;2024-02-26T10:41:02;98272.78;;;9.17;63.55
67740;BME280;54536;50.090;14.420;2024-02-26T10:43:28;98281.03;;;9.30;66.09
67740;BME280;54536;50.090;14.420;2024-02-26T10:45:56;98282.59;;;9.14;61.99
67740;BME280;54536;50.090;14.420;2024-02-26T10:48:22;98273.78;;;9.24;64.10
67740;BME280;54536;50.090;14.420;2024-02-26T10:50:48;98282.78;;;9.21;63.06
67740;BME280;54536;50.090;14.420;2024-02-26T10:53:23;98288.84;;;9.22;62.19
67740;BME280;54536;50.090;14.420;2024-02-26T10:56:02;98290.44;;;9.14;61.87
67740;BME280;54536;50.090;14.420;2024-02-26T10:58:29;98291.38;;;9.05;62.71
67740;BME280;54536;50.090;14.420;2024-02-26T11:00:57;98295.69;;;9.14;62.49
67740;BME280;54536;50.090;14.420;2024-02-26T11:03:25;98291.38;;;9.31;61.99
67740;BME280;54536;50.090;14.420;2024-02-26T11:05:52;98290.66;;;9.21;61.37
67740;BME280;54536;50.090;14.420;2024-02-26T11:08:20;98283.69;;;9.38;61.38
67740;BME280;54536;50.090;14.420;2024-02-26T11:10:53;98285.66;;;9.36;60.90
67740;BME280;54536;50.090;14.420;2024-02-26T11:13:21;98276.00;;;9.36;61.05
67740;BME280;54536;50.090;14.420;2024-02-26T11:15:50;98268.38;;;9.59;60.30
67740;BME280;54536;50.090;14.420;2024-02-26T11:18:19;98267.94;;;9.30;60.87
67740;BME280;54536;50.090;14.420;2024-02-26T11:20:51;98268.47;;;9.42;60.71
67740;BME280;54536;50.090;14.420;2024-02-26T11:23:20;98271.84;;;9.26;60.98
67740;BME280;54536;50.090;14.420;2024-02-26T11:25:49;98271.34;;;9.22;61.39
67740;BME280;54536;50.090;14.420;2024-02-26T11:28:19;98271.44;;;9.47;60.59
67740;BME280;54536;50.090;14.420;2024-02-26T11:30:49;98276.69;;;9.47;60.47
67740;BME280;54536;50.090;14.420;2024-02-26T11:33:16;98274.06;;;9.47;60.18
67740;BME280;54536;50.090;14.420;2024-02-26T11:35:44;98275.81;;;9.38;60.84
67740;BME280;54536;50.090;14.420;2024-02-26T11:38:20;98280.50;;;9.52;60.49
67740;BME280;54536;50.090;14.420;2024-02-26T11:40:50;98281.66;;;9.58;60.28
67740;BME280;54536;50.090;14.420;2024-02-26T11:43:16;98279.28;;;9.73;60.20
67740;BME280;54536;50.090;14.420;2024-02-26T11:48:20;98284.19;;;9.42;60.86
67740;BME280;54536;50.090;14.420;2024-02-26T11:50:49;98276.72;;;9.21;60.71
67740;BME280;54536;50.090;14.420;2024-02-26T11:53:22;98271.34;;;9.56;60.53
67740;BME280;54536;50.090;14.420;2024-02-26T11:58:40;98260.38;;;9.35;60.69
67740;BME280;54536;50.090;14.420;2024-02-26T12:06:47;98269.25;;;9.34;60.47
67740;BME280;54536;50.090;14.420;2024-02-26T12:09:39;98266.00;;;9.40;60.07
67740;BME280;54536;50.090;14.420;2024-02-26T12:12:08;98262.41;;;9.41;60.63
67740;BME280;54536;50.090;14.420;2024-02-26T12:14:57;98263.56;;;9.47;60.65
67740;BME280;54536;50.090;14.420;2024-02-26T12:17:24;98261.66;;;9.57;60.37
67740;BME280;54536;50.090;14.420;2024-02-26T12:19:52;98260.00;;;9.56;60.42
67740;BME280;54536;50.090;14.420;2024-02-26T12:22:20;98255.91;;;9.53;60.47
67740;BME280;54536;50.090;14.420;2024-02-26T12:24:46;98264.66;;;9.70;60.17
67740;BME280;54536;50.090;14.420;2024-02-26T12:27:12;98257.31;;;9.82;59.59
67740;BME280;54536;50.090;14.420;2024-02-26T12:29:39;98253.88;;;9.90;59.24
67740;BME280;54536;50.090;14.420;2024-02-26T12:32:06;98250.66;;;10.12;58.58
67740;BME280;54536;50.090;14.420;2024-02-26T12:34:33;98254.91;;;10.13;58.37
67740;BME280;54536;50.090;14.420;2024-02-26T12:37:01;98253.75;;;9.99;58.94
67740;BME280;54536;50.090;14.420;2024-02-26T12:39:26;98246.69;;;10.00;59.23
67740;BME280;54536;50.090;14.420;2024-02-26T12:41:53;98253.44;;;10.02;58.66
67740;BME280;54536;50.090;14.420;2024-02-26T12:44:26;98253.56;;;9.93;59.42
67740;BME280;54536;50.090;14.420;2024-02-26T12:47:03;98254.06;;;9.96;59.31
67740;BME280;54536;50.090;14.420;2024-02-26T12:49:29;98254.44;;;10.18;58.39
67740;BME280;54536;50.090;14.420;2024-02-26T12:51:56;98257.53;;;10.05;58.55
67740;BME280;54536;50.090;14.420;2024-02-26T12:54:33;98265.78;;;10.18;58.39
67740;BME280;54536;50.090;14.420;2024-02-26T12:57:02;98268.88;;;10.05;59.04
67740;BME280;54536;50.090;14.420;2024-02-26T12:59:30;98270.19;;;10.09;58.98
67740;BME280;54536;50.090;14.420;2024-02-26T13:01:58;98276.28;;;10.18;58.78
67740;BME280;54536;50.090;14.420;2024-02-26T13:04:26;98275.94;;;10.05;58.48
67740;BME280;54536;50.090;14.420;2024-02-26T13:06:54;98281.78;;;9.91;59.38
67740;BME280;54536;50.090;14.420;2024-02-26T13:09:20;98280.50;;;9.95;59.63